Illesheim, Germany

6:53 AM CEST on September 15, 2014 (GMT +0200)
Illesheim | Change Station
CLOSE
Current Station
Airport
Location: Illesheim,
Elevation: 1066 ft
Nearby Weather Stations

Elev 1066 ft 49.47 °N, 10.39 °E | Updated 26 minutes ago

Overcast
Overcast
57 °F
Feels Like 57 °F
N
1
Wind Variable Wind from NE

Today
High -- | Low -- °F
--% Chance of Precip.
Yesterday
High -- | Low -- °F
Precip. -- in
6:54 AM 7:32 PM
Waning Gibbous, 59% visible
Pressure 30.04 in
Visibility 6.2 miles
Clouds Scattered Clouds 800 ft
Mostly Cloudy 4300 ft
Overcast 10000 ft
Dew Point 57 °F
Humidity 100%
Rainfall 0.00 in
Snow Depth Not available.
UV 0 out of 12
Pollen Not available.
Air Quality Not available.
Flu Activity Not available.
SPECI ETIK 150427Z AUTO 04001KT 9999 SCT008 BKN043 OVC100 14/14 A3004 RMK AO2

More Conditions Fewer Conditions

Pressure 30.04 in
Visibility 6.2 miles
Clouds Scattered Clouds 800 ft
Mostly Cloudy 4300 ft
Overcast 10000 ft
Dew Point 57 °F
Humidity 100%
Rainfall 0.00 in
Snow Depth Not available.
UV 0 out of 12
Pollen Not available.
Air Quality Not available.
Flu Activity Not available.
SPECI ETIK 150427Z AUTO 04001KT 9999 SCT008 BKN043 OVC100 14/14 A3004 RMK AO2

More Conditions Fewer Conditions

10-Day Weather Forecast

Almanac

Astronomy

Sep. 15, 2014 Rise Set
Actual Time 6:54 AM CEST 7:32 PM CEST
Civil Twilight 6:22 AM CEST 8:04 PM CEST
Nautical Twilight 5:43 AM CEST 8:42 PM CEST
Astronomical Twilight 5:03 AM CEST 9:22 PM CEST
Moon 11:28 PM CEST 2:12 PM CEST
Length of Visible Light 13h 42m
Length of Day
12h 37m
Tomorrow will be 3m 37s shorter.
Waning Gibbous, 59% of the Moon is Illuminated
Today
Waning Gibbous
Sep 15
Last Quarter
Sep 24
New
Oct 1
First Quarter
Oct 8
Full

Yesterday's Extremes

Country Highs Country Lows

Community

WunderPhotos

Upload Photos

1,753,401 photos uploaded!

Nearby

Snow Depth

Not available.

Earthquake Activity

City Distance Mag. Time & Date
No recent earthquake activity has been reported nearby.
Minimum magnitude displayed is 2.5.

Coastal Water Temperatures

Place Temperature
No Stations Reporting

Nearby Weather Stations